Time;durP1;ratioP1;P1;durP2;ratioP2;P2;SDS_P1;SDS_P2;PMS_P1;PMS_P2;Temp;Humidity;BMP_temperature;BMP_pressure;BME280_temperature;BME280_humidity;BME280_pressure;Samples;Min_cycle;Max_cycle;Signal;HPM_P1;HPM_P2
2021/05/29 00:01:19;;;;;;;14.37;9.30;;;10.70;99.90;;;;;;5009083;28;20953;-77
2021/05/29 00:03:47;;;;;;;15.13;9.13;;;10.60;99.90;;;;;;5011703;28;20429;-77
2021/05/29 00:06:14;;;;;;;16.57;8.73;;;10.60;99.90;;;;;;4995694;28;20516;-78
2021/05/29 00:08:40;;;;;;;14.37;9.40;;;10.60;99.90;;;;;;5012988;28;20483;-78
2021/05/29 00:11:08;;;;;;;14.07;8.80;;;10.50;99.90;;;;;;5011261;28;20440;-77
2021/05/29 00:13:37;;;;;;;11.67;8.83;;;10.50;99.90;;;;;;4994977;28;21111;-77
2021/05/29 00:16:04;;;;;;;11.93;9.00;;;10.40;99.90;;;;;;4995709;28;20440;-77
2021/05/29 00:18:31;;;;;;;14.13;9.67;;;10.40;99.90;;;;;;5008483;28;20504;-77
2021/05/29 00:20:58;;;;;;;15.30;9.77;;;10.40;99.90;;;;;;5011146;28;20532;-77
2021/05/29 00:23:25;;;;;;;14.90;9.87;;;10.40;99.90;;;;;;5012287;28;20454;-77
2021/05/29 00:25:52;;;;;;;12.30;9.50;;;10.40;99.90;;;;;;5008122;28;20469;-77
2021/05/29 00:28:21;;;;;;;15.97;9.60;;;10.40;99.90;;;;;;5012824;28;20486;-78
2021/05/29 00:30:48;;;;;;;14.17;7.83;;;10.40;99.90;;;;;;5012283;28;20563;-78
2021/05/29 00:33:15;;;;;;;16.23;9.20;;;10.40;99.90;;;;;;5013040;28;20429;-78
2021/05/29 00:35:42;;;;;;;14.80;9.77;;;10.20;99.90;;;;;;5009244;28;20835;-77
2021/05/29 00:38:09;;;;;;;12.03;8.50;;;10.20;99.90;;;;;;5012677;28;20448;-78
2021/05/29 00:40:36;;;;;;;9.63;8.30;;;10.30;99.90;;;;;;5009150;28;20482;-77
2021/05/29 00:43:05;;;;;;;13.07;8.13;;;10.20;99.90;;;;;;5012712;28;20439;-77
2021/05/29 00:45:33;;;;;;;14.30;9.13;;;10.10;99.90;;;;;;5010952;28;20235;-78
2021/05/29 00:48:02;;;;;;;11.95;8.73;;;10.20;99.90;;;;;;5011955;28;20464;-78
2021/05/29 00:50:31;;;;;;;13.32;8.50;;;10.00;99.90;;;;;;5010785;28;20300;-77
2021/05/29 00:52:59;;;;;;;12.90;8.50;;;9.90;99.90;;;;;;5012407;28;20680;-78
2021/05/29 00:55:26;;;;;;;13.00;8.13;;;9.90;99.90;;;;;;5010701;28;20563;-77
2021/05/29 00:57:53;;;;;;;12.90;8.32;;;9.80;99.90;;;;;;5012244;28;20459;-77
2021/05/29 01:00:22;;;;;;;9.85;7.32;;;9.70;99.90;;;;;;4994147;28;20241;-78
2021/05/29 01:02:50;;;;;;;11.10;6.97;;;9.70;99.90;;;;;;5012090;28;20182;-77
2021/05/29 01:05:18;;;;;;;13.15;8.18;;;9.70;99.90;;;;;;4992709;28;20569;-79
2021/05/29 01:07:53;;;;;;;10.65;7.32;;;9.70;99.90;;;;;;5011965;28;20217;-80
2021/05/29 01:10:22;;;;;;;11.25;8.43;;;9.60;99.90;;;;;;4992814;28;20744;-79
2021/05/29 01:12:49;;;;;;;12.70;7.68;;;9.60;99.90;;;;;;4994506;28;20200;-79
2021/05/29 01:15:19;;;;;;;11.60;8.30;;;9.60;99.90;;;;;;4993555;28;20547;-80
2021/05/29 01:17:46;;;;;;;14.45;9.00;;;9.60;99.90;;;;;;5012222;28;20630;-79
2021/05/29 01:20:13;;;;;;;12.82;9.90;;;9.60;99.90;;;;;;5002511;28;20501;-79
2021/05/29 01:22:45;;;;;;;10.68;8.40;;;9.60;99.90;;;;;;5011931;28;20565;-79
2021/05/29 01:25:37;;;;;;;14.32;8.38;;;9.60;99.90;;;;;;5008371;28;20246;-80
2021/05/29 01:28:11;;;;;;;10.63;7.47;;;9.60;99.90;;;;;;4994296;28;20226;-80
2021/05/29 01:31:02;;;;;;;9.40;7.60;;;9.60;99.90;;;;;;4993650;28;20850;-80
2021/05/29 01:33:30;;;;;;;11.30;7.20;;;9.60;99.90;;;;;;4994399;28;20197;-79
2021/05/29 01:36:09;;;;;;;10.75;8.35;;;9.60;99.90;;;;;;5009401;28;20220;-79
2021/05/29 01:38:38;;;;;;;7.90;7.10;;;9.60;99.90;;;;;;5011697;28;20217;-79
2021/05/29 01:41:11;;;;;;;10.82;7.00;;;9.60;99.90;;;;;;5009016;28;20189;-79
2021/05/29 01:43:40;;;;;;;11.63;8.00;;;9.50;99.90;;;;;;4993638;28;20198;-79
2021/05/29 01:46:09;;;;;;;11.27;7.47;;;9.50;99.90;;;;;;5011709;28;20198;-80
2021/05/29 01:48:43;;;;;;;9.65;7.15;;;9.50;99.90;;;;;;5005665;28;20305;-80
2021/05/29 01:51:14;;;;;;;8.20;7.40;;;9.50;99.90;;;;;;5012610;28;20532;-79
2021/05/29 01:53:42;;;;;;;12.63;7.20;;;9.40;99.90;;;;;;4994142;28;20197;-79
2021/05/29 01:56:09;;;;;;;9.35;7.80;;;9.40;99.90;;;;;;5010325;28;20223;-80
2021/05/29 01:58:37;;;;;;;8.88;7.63;;;9.40;99.90;;;;;;5011256;28;20222;-79
2021/05/29 02:01:06;;;;;;;12.38;7.68;;;9.40;99.90;;;;;;5011551;28;20664;-80
2021/05/29 02:03:33;;;;;;;15.07;9.55;;;9.40;99.90;;;;;;5009847;28;20183;-79
2021/05/29 02:06:00;;;;;;;11.20;8.60;;;9.40;99.90;;;;;;5011440;28;20191;-79
2021/05/29 02:08:27;;;;;;;15.77;8.00;;;9.30;99.90;;;;;;4985517;28;20208;-79
2021/05/29 02:10:54;;;;;;;10.88;8.10;;;9.30;99.90;;;;;;5008073;28;20213;-79
2021/05/29 02:13:30;;;;;;;9.55;7.50;;;9.30;99.90;;;;;;5011595;28;20202;-79
2021/05/29 02:15:58;;;;;;;13.50;7.72;;;9.30;99.90;;;;;;4989211;28;20211;-80
2021/05/29 02:18:25;;;;;;;12.70;6.97;;;9.20;99.90;;;;;;4994096;28;20210;-80
2021/05/29 02:20:58;;;;;;;12.18;7.60;;;9.20;99.90;;;;;;5009397;28;20224;-79
2021/05/29 02:23:51;;;;;;;10.60;7.90;;;9.20;99.90;;;;;;5012038;28;20200;-80
2021/05/29 02:26:21;;;;;;;12.85;7.65;;;9.10;99.90;;;;;;5004345;28;20216;-80
2021/05/29 02:28:54;;;;;;;9.95;6.93;;;9.10;99.90;;;;;;5010476;28;20227;-79
2021/05/29 02:31:22;;;;;;;12.77;8.60;;;9.00;99.90;;;;;;4993907;28;20555;-79
2021/05/29 02:33:49;;;;;;;11.00;8.13;;;9.10;99.90;;;;;;4993291;28;20628;-80
2021/05/29 02:36:16;;;;;;;12.38;7.78;;;9.00;99.90;;;;;;5009648;28;20195;-79
2021/05/29 02:38:43;;;;;;;11.88;8.73;;;9.00;99.90;;;;;;4992725;28;20215;-79
2021/05/29 02:41:12;;;;;;;12.48;8.15;;;9.00;99.90;;;;;;4991335;28;20184;-79
2021/05/29 02:43:40;;;;;;;13.60;8.10;;;8.90;99.90;;;;;;5010570;28;20183;-79
2021/05/29 02:46:07;;;;;;;13.07;8.52;;;8.90;99.90;;;;;;5010943;28;20306;-79
2021/05/29 02:48:34;;;;;;;15.88;7.70;;;8.90;99.90;;;;;;4993129;28;20225;-79
2021/05/29 02:51:01;;;;;;;14.60;9.48;;;8.80;99.90;;;;;;5012659;28;20548;-80
2021/05/29 02:53:28;;;;;;;13.93;8.77;;;8.90;99.90;;;;;;5014225;28;20185;-79
2021/05/29 02:55:55;;;;;;;9.48;7.85;;;8.80;99.90;;;;;;5004616;28;20192;-79
2021/05/29 02:58:22;;;;;;;12.02;8.07;;;8.80;99.90;;;;;;5013760;28;20210;-80
2021/05/29 03:00:50;;;;;;;12.38;9.98;;;8.70;99.90;;;;;;4996706;28;20707;-80
2021/05/29 03:03:17;;;;;;;11.35;9.52;;;8.70;99.90;;;;;;4983640;28;20229;-80
2021/05/29 03:05:47;;;;;;;13.18;9.45;;;8.70;99.90;;;;;;4999982;28;20227;-79
2021/05/29 03:08:16;;;;;;;10.68;8.25;;;8.80;99.90;;;;;;4995986;28;20218;-79
2021/05/29 03:10:45;;;;;;;9.98;7.20;;;8.80;99.90;;;;;;4994217;28;20249;-79
2021/05/29 03:13:13;;;;;;;10.65;7.95;;;8.80;99.90;;;;;;5014182;28;20186;-79
2021/05/29 03:15:44;;;;;;;8.30;7.50;;;8.80;99.90;;;;;;5014019;28;20562;-79
2021/05/29 03:18:11;;;;;;;11.60;7.35;;;8.80;99.90;;;;;;4997063;28;20218;-80
2021/05/29 03:20:38;;;;;;;9.23;6.30;;;8.90;99.90;;;;;;5012518;28;20217;-79
2021/05/29 03:23:06;;;;;;;9.15;7.13;;;8.80;99.90;;;;;;5013958;28;20228;-79
2021/05/29 03:25:33;;;;;;;8.93;6.88;;;8.70;99.90;;;;;;5012070;28;20222;-79
2021/05/29 03:28:00;;;;;;;9.50;7.75;;;8.70;99.90;;;;;;5013991;28;20552;-78
2021/05/29 03:30:29;;;;;;;11.20;8.10;;;8.70;99.90;;;;;;5013743;28;20301;-80
2021/05/29 03:32:56;;;;;;;11.65;7.45;;;8.60;99.90;;;;;;4996802;28;20194;-79
2021/05/29 03:35:24;;;;;;;9.63;6.93;;;8.60;99.90;;;;;;5008498;28;20218;-79
2021/05/29 03:37:51;;;;;;;9.50;7.30;;;8.60;99.90;;;;;;5005188;28;20217;-79
2021/05/29 03:40:20;;;;;;;9.00;6.68;;;8.50;99.90;;;;;;4993144;28;20218;-80
2021/05/29 03:42:47;;;;;;;11.30;7.57;;;8.50;99.90;;;;;;5012395;28;20698;-80
2021/05/29 03:45:16;;;;;;;9.02;7.00;;;8.50;99.90;;;;;;5013452;28;20209;-80
2021/05/29 03:47:45;;;;;;;6.80;6.20;;;8.50;99.90;;;;;;5013391;28;20711;-79
2021/05/29 03:50:16;;;;;;;10.02;6.93;;;8.40;99.90;;;;;;4993752;28;20209;-80
2021/05/29 03:52:44;;;;;;;8.88;6.88;;;8.40;99.90;;;;;;5013942;28;20182;-80
2021/05/29 03:55:12;;;;;;;9.82;7.03;;;8.40;99.90;;;;;;4994029;28;20301;-80
2021/05/29 03:57:39;;;;;;;9.55;7.43;;;8.40;99.90;;;;;;4995812;28;20206;-79
2021/05/29 04:00:08;;;;;;;9.57;7.22;;;8.40;99.90;;;;;;5012847;28;20212;-79
2021/05/29 04:02:45;;;;;;;11.65;6.97;;;8.30;99.90;;;;;;4996191;28;20264;-79
2021/05/29 04:05:14;;;;;;;8.23;6.47;;;8.30;99.90;;;;;;5010505;28;20233;-80
2021/05/29 04:07:42;;;;;;;11.93;7.22;;;8.30;99.90;;;;;;5012791;28;20236;-80
2021/05/29 04:10:12;;;;;;;12.68;7.85;;;8.30;99.90;;;;;;5011096;28;20210;-80
2021/05/29 04:12:40;;;;;;;9.75;7.50;;;8.30;99.90;;;;;;4984068;28;20202;-79
2021/05/29 04:15:08;;;;;;;12.20;7.82;;;8.40;99.90;;;;;;5011912;28;20629;-79
2021/05/29 04:17:36;;;;;;;8.20;6.25;;;8.40;99.90;;;;;;5011378;28;20213;-80
2021/05/29 04:20:05;;;;;;;9.82;7.05;;;8.50;99.90;;;;;;4989887;28;20213;-79
2021/05/29 04:22:31;;;;;;;7.45;6.45;;;8.50;99.90;;;;;;5011667;28;20206;-80
2021/05/29 04:24:58;;;;;;;12.63;8.27;;;8.50;99.90;;;;;;5010812;28;20259;-80
2021/05/29 04:27:26;;;;;;;10.75;7.72;;;8.60;99.90;;;;;;5012781;28;20226;-79
2021/05/29 04:29:54;;;;;;;9.10;7.90;;;8.70;99.90;;;;;;4994398;28;20321;-80
2021/05/29 04:32:21;;;;;;;9.13;7.43;;;8.80;99.90;;;;;;4979553;28;20277;-80
2021/05/29 04:34:48;;;;;;;7.13;6.43;;;8.90;99.90;;;;;;5001640;28;20230;-79
2021/05/29 04:37:16;;;;;;;9.45;6.90;;;8.90;99.90;;;;;;5011077;28;20207;-79
2021/05/29 04:39:44;;;;;;;8.55;6.93;;;8.90;99.90;;;;;;4993650;28;20250;-80
2021/05/29 04:42:18;;;;;;;10.98;7.65;;;9.00;99.90;;;;;;5010848;28;20728;-80
2021/05/29 04:44:45;;;;;;;9.70;7.30;;;9.00;99.90;;;;;;4994834;28;20244;-79
2021/05/29 04:47:12;;;;;;;11.57;7.13;;;9.10;99.90;;;;;;5012152;28;20754;-80
2021/05/29 04:49:39;;;;;;;12.23;7.72;;;9.10;99.90;;;;;;4988986;28;20266;-79
2021/05/29 04:52:07;;;;;;;14.40;7.45;;;9.10;99.90;;;;;;5012410;28;20186;-79
2021/05/29 04:54:35;;;;;;;14.27;7.32;;;9.20;99.90;;;;;;4994829;28;20286;-79
2021/05/29 04:57:02;;;;;;;7.97;7.18;;;9.30;99.90;;;;;;5010667;28;20256;-80
2021/05/29 04:59:31;;;;;;;8.00;7.15;;;9.30;99.90;;;;;;5011874;28;20269;-80
2021/05/29 05:01:58;;;;;;;11.50;7.38;;;9.30;99.90;;;;;;4994860;28;20182;-80
2021/05/29 05:04:25;;;;;;;11.15;8.20;;;9.40;99.90;;;;;;5008256;28;20233;-79
2021/05/29 05:06:52;;;;;;;7.75;6.95;;;9.50;99.90;;;;;;5012499;28;20207;-79
2021/05/29 05:09:19;;;;;;;8.40;7.20;;;9.60;99.90;;;;;;4993756;28;20241;-79
2021/05/29 05:11:46;;;;;;;10.63;8.23;;;9.60;99.90;;;;;;4993346;28;20276;-79
2021/05/29 05:14:13;;;;;;;9.00;8.00;;;9.70;99.90;;;;;;5007650;28;20248;-80
2021/05/29 05:16:43;;;;;;;11.23;8.25;;;9.80;99.90;;;;;;4995277;28;20182;-79
2021/05/29 05:19:10;;;;;;;10.88;8.55;;;9.90;99.90;;;;;;5009366;28;20220;-79
2021/05/29 05:21:39;;;;;;;11.43;8.70;;;10.00;99.90;;;;;;5011682;28;20529;-79
2021/05/29 05:24:07;;;;;;;13.83;9.10;;;10.10;99.90;;;;;;5009179;28;20478;-80
2021/05/29 05:26:34;;;;;;;10.07;8.33;;;10.10;99.90;;;;;;5008852;28;20443;-80
2021/05/29 05:29:01;;;;;;;12.40;8.37;;;10.30;99.90;;;;;;5009119;28;20476;-79
2021/05/29 05:31:28;;;;;;;10.90;8.63;;;10.30;99.90;;;;;;5009518;28;20429;-79
2021/05/29 05:34:07;;;;;;;11.43;8.13;;;10.50;99.90;;;;;;4998715;28;20507;-79
2021/05/29 05:36:38;;;;;;;13.13;8.23;;;10.60;99.90;;;;;;4993278;28;20443;-80
2021/05/29 05:39:10;;;;;;;10.00;8.63;;;10.70;99.90;;;;;;5009799;28;20448;-79
2021/05/29 05:41:38;;;;;;;13.80;9.10;;;10.80;99.90;;;;;;5009251;28;20468;-79
2021/05/29 05:44:06;;;;;;;11.90;8.50;;;10.90;99.90;;;;;;5009050;28;21001;-79
2021/05/29 05:46:34;;;;;;;10.77;8.60;;;11.00;99.90;;;;;;4993593;28;20527;-80
2021/05/29 05:49:02;;;;;;;12.33;9.27;;;11.00;99.90;;;;;;5008481;28;20830;-79
2021/05/29 05:51:30;;;;;;;11.50;9.53;;;11.10;99.90;;;;;;5010951;28;20596;-79
2021/05/29 05:53:58;;;;;;;12.67;9.50;;;11.20;99.90;;;;;;5010242;28;20484;-79
2021/05/29 05:56:25;;;;;;;13.20;10.03;;;11.40;99.90;;;;;;4979916;28;20535;-79
2021/05/29 05:58:57;;;;;;;14.70;9.07;;;11.70;99.90;;;;;;4992745;28;20456;-79
2021/05/29 06:01:26;;;;;;;14.87;9.97;;;12.20;99.90;;;;;;4994126;28;20433;-77
2021/05/29 06:03:53;;;;;;;15.60;9.47;;;12.70;99.90;;;;;;5012263;28;20523;-77
2021/05/29 06:06:22;;;;;;;12.23;10.20;;;13.20;99.90;;;;;;5001227;28;20469;-77
2021/05/29 06:08:49;;;;;;;13.83;9.47;;;;;;;;;;5000402;28;20902;-77
2021/05/29 06:11:17;;;;;;;12.63;9.10;;;;;;;;;;5010123;28;20789;-77
2021/05/29 06:21:23;;;;;;;15.53;9.00;;;16.20;99.90;;;;;;4972494;28;1113412;-77
2021/05/29 06:23:50;;;;;;;12.60;7.97;;;16.60;99.90;;;;;;5010928;28;20210;-77
2021/05/29 06:26:17;;;;;;;12.20;7.40;;;16.90;99.90;;;;;;5013773;28;20447;-77
2021/05/29 06:28:44;;;;;;;14.73;9.83;;;17.00;99.90;;;;;;4997001;28;21021;-77
2021/05/29 06:31:11;;;;;;;14.57;9.27;;;17.20;99.90;;;;;;5015084;28;20435;-77
2021/05/29 06:33:38;;;;;;;12.60;8.67;;;17.20;99.50;;;;;;5014577;28;20439;-76
2021/05/29 06:36:05;;;;;;;15.40;10.63;;;17.00;99.40;;;;;;5013240;28;20836;-77
2021/05/29 06:38:32;;;;;;;15.30;8.70;;;16.80;98.50;;;;;;5014235;28;20480;-77
2021/05/29 06:40:59;;;;;;;15.03;8.70;;;16.60;99.50;;;;;;4999557;28;20446;-78
2021/05/29 06:43:33;;;;;;;12.77;9.87;;;16.40;99.90;;;;;;4990200;28;20507;-78
2021/05/29 06:46:02;;;;;;;16.83;9.07;;;16.30;99.90;;;;;;5014842;28;20491;-78
2021/05/29 06:48:29;;;;;;;10.40;9.03;;;16.20;99.90;;;;;;4995083;28;20467;-78
2021/05/29 06:50:58;;;;;;;14.70;11.23;;;16.30;99.90;;;;;;5013132;28;20502;-78
2021/05/29 06:53:49;;;;;;;17.70;9.93;;;16.20;99.90;;;;;;5014880;28;20718;-78
2021/05/29 06:58:58;;;;;;;16.30;8.20;;;16.20;99.90;;;;;;4992829;28;20826;-77
2021/05/29 07:01:27;;;;;;;11.60;8.30;;;16.30;99.90;;;;;;5014367;28;20437;-77
2021/05/29 07:03:55;;;;;;;14.93;8.73;;;16.20;99.90;;;;;;5012316;28;20445;-78
2021/05/29 07:06:24;;;;;;;10.93;8.43;;;16.20;99.90;;;;;;5009483;28;20535;-78
2021/05/29 07:08:51;;;;;;;14.47;8.20;;;16.20;99.90;;;;;;5013597;28;21008;-77
2021/05/29 07:11:18;;;;;;;13.70;8.80;;;16.20;99.90;;;;;;5010542;28;20455;-77
2021/05/29 07:13:47;;;;;;;11.80;6.63;;;16.30;98.90;;;;;;5014012;28;20429;-77
2021/05/29 07:16:15;;;;;;;12.83;7.13;;;16.20;99.20;;;;;;4997380;28;20487;-77
2021/05/29 07:18:46;;;;;;;16.97;6.77;;;16.30;98.70;;;;;;5011089;28;20453;-77
2021/05/29 07:21:15;;;;;;;23.77;9.43;;;16.30;99.70;;;;;;4997206;28;20873;-77
2021/05/29 07:23:43;;;;;;;9.23;7.87;;;16.50;98.70;;;;;;5012558;28;20437;-77
2021/05/29 07:26:12;;;;;;;12.67;7.93;;;16.70;98.50;;;;;;5012589;28;20440;-78
2021/05/29 07:28:39;;;;;;;12.53;7.93;;;16.90;96.40;;;;;;4996307;28;20487;-77
2021/05/29 07:31:08;;;;;;;14.13;7.67;;;16.90;95.60;;;;;;5016576;28;20433;-78
2021/05/29 07:33:36;;;;;;;12.07;7.80;;;16.80;96.10;;;;;;5021434;28;20437;-77
2021/05/29 07:36:03;;;;;;;9.43;7.30;;;16.90;94.80;;;;;;5015694;28;20437;-77
2021/05/29 07:38:30;;;;;;;11.23;7.47;;;16.90;94.60;;;;;;4999570;28;20449;-76
2021/05/29 07:40:58;;;;;;;9.40;8.40;;;17.00;93.60;;;;;;4996117;28;20497;-77
2021/05/29 07:43:25;;;;;;;10.27;5.90;;;17.10;92.80;;;;;;5014755;28;20472;-77
2021/05/29 07:45:52;;;;;;;10.50;6.87;;;17.10;92.50;;;;;;5011868;28;20457;-77
2021/05/29 07:48:20;;;;;;;9.23;6.10;;;17.30;92.50;;;;;;4998776;28;20600;-77
2021/05/29 07:51:05;;;;;;;8.07;6.10;;;17.30;91.00;;;;;;5013945;28;20477;-77
2021/05/29 07:53:34;;;;;;;10.07;6.67;;;17.30;90.80;;;;;;4982930;28;20443;-78
2021/05/29 07:56:07;;;;;;;11.50;6.40;;;17.40;90.80;;;;;;4982765;28;20441;-78
2021/05/29 07:58:35;;;;;;;8.57;6.13;;;17.40;90.20;;;;;;5013504;28;20808;-77
2021/05/29 08:01:03;;;;;;;8.80;6.23;;;17.50;87.00;;;;;;5013894;28;20433;-78
2021/05/29 08:03:30;;;;;;;14.17;7.53;;;17.60;87.30;;;;;;5004054;28;20439;-77
2021/05/29 08:05:57;;;;;;;8.90;6.50;;;17.70;90.30;;;;;;5008696;28;20846;-77
2021/05/29 08:08:25;;;;;;;14.03;7.10;;;17.90;89.30;;;;;;5012854;28;20481;-78
2021/05/29 08:10:53;;;;;;;10.63;7.33;;;18.00;88.00;;;;;;5011933;28;20479;-77
2021/05/29 08:13:20;;;;;;;6.93;6.20;;;17.90;89.00;;;;;;5013465;28;20783;-77
2021/05/29 08:15:49;;;;;;;11.27;7.13;;;18.10;87.40;;;;;;5013136;28;20467;-78
2021/05/29 08:18:17;;;;;;;8.07;5.73;;;18.10;87.90;;;;;;5007057;28;20463;-78
2021/05/29 08:20:47;;;;;;;7.73;6.93;;;18.20;89.20;;;;;;5008176;28;20999;-78
2021/05/29 08:23:14;;;;;;;14.23;11.23;;;18.40;86.60;;;;;;5013653;28;20465;-77
2021/05/29 08:25:46;;;;;;;15.40;9.17;;;18.40;85.10;;;;;;5011038;28;20464;-78
2021/05/29 08:28:13;;;;;;;13.10;8.60;;;18.40;84.20;;;;;;5013141;28;20522;-77
2021/05/29 08:30:41;;;;;;;9.73;7.33;;;18.60;83.50;;;;;;5012715;28;20903;-77
2021/05/29 08:33:08;;;;;;;9.07;7.37;;;18.70;82.30;;;;;;4994193;28;20817;-77
2021/05/29 08:35:35;;;;;;;11.20;6.63;;;18.90;82.40;;;;;;4978782;28;20477;-77
2021/05/29 08:38:05;;;;;;;8.13;6.00;;;18.90;81.50;;;;;;5012957;28;20522;-78
2021/05/29 08:40:32;;;;;;;8.23;5.87;;;18.90;81.50;;;;;;5011207;28;20901;-78
2021/05/29 08:43:00;;;;;;;10.00;6.60;;;19.00;84.30;;;;;;4995503;28;20494;-78
2021/05/29 08:45:27;;;;;;;10.20;6.27;;;19.00;82.10;;;;;;4995112;28;20461;-77
2021/05/29 08:47:54;;;;;;;7.87;5.47;;;19.10;81.70;;;;;;5007655;28;20495;-77
2021/05/29 08:50:22;;;;;;;6.77;5.30;;;19.20;79.80;;;;;;4994536;28;20486;-77
2021/05/29 08:52:51;;;;;;;8.30;5.37;;;19.30;76.30;;;;;;4995334;28;20436;-77
2021/05/29 08:55:19;;;;;;;8.03;5.50;;;19.30;75.90;;;;;;5010588;28;20486;-77
2021/05/29 08:57:49;;;;;;;7.03;6.27;;;19.30;76.60;;;;;;5012642;28;20536;-77
2021/05/29 09:00:20;;;;;;;8.03;5.73;;;19.40;77.50;;;;;;5012373;28;20471;-78
2021/05/29 09:03:06;;;;;;;6.03;5.40;;;19.40;74.80;;;;;;5012656;28;20441;-78
2021/05/29 09:05:41;;;;;;;4.83;4.40;;;19.70;79.10;;;;;;5006252;28;20543;-77
2021/05/29 09:08:12;;;;;;;4.83;4.30;;;19.70;74.40;;;;;;5012408;28;20639;-78
2021/05/29 09:10:42;;;;;;;4.40;3.97;;;19.70;71.90;;;;;;4982627;28;20471;-78
2021/05/29 09:13:14;;;;;;;3.53;3.00;;;19.60;71.20;;;;;;5012779;28;20465;-78
2021/05/29 09:15:50;;;;;;;3.87;3.50;;;19.60;70.70;;;;;;4999210;28;20468;-78
2021/05/29 09:18:28;;;;;;;3.70;3.40;;;19.70;68.90;;;;;;5013333;28;20477;-78
2021/05/29 09:21:18;;;;;;;3.93;3.53;;;19.90;65.80;;;;;;4993521;28;20501;-78
2021/05/29 09:23:55;;;;;;;3.60;3.30;;;20.10;61.60;;;;;;4992762;28;20465;-77
2021/05/29 09:26:41;;;;;;;3.77;3.00;;;20.10;62.50;;;;;;4994217;28;20443;-77
2021/05/29 09:29:28;;;;;;;4.60;2.90;;;19.90;59.00;;;;;;4971949;28;20546;-77
2021/05/29 09:32:07;;;;;;;5.10;2.53;;;20.10;59.30;;;;;;4972640;28;20837;-77
2021/05/29 09:34:39;;;;;;;3.47;3.17;;;20.20;58.80;;;;;;4982518;28;20851;-77
2021/05/29 09:37:17;;;;;;;3.80;2.50;;;20.30;55.70;;;;;;4992660;28;20548;-78
2021/05/29 09:39:47;;;;;;;3.73;3.20;;;20.20;55.80;;;;;;5007751;28;20481;-78
2021/05/29 09:42:16;;;;;;;6.13;4.50;;;20.10;62.10;;;;;;4981112;28;20473;-77
2021/05/29 09:44:44;;;;;;;5.00;3.83;;;20.10;64.30;;;;;;4992444;28;20484;-78
2021/05/29 09:47:14;;;;;;;4.20;3.27;;;20.20;63.90;;;;;;5002696;28;20459;-77
2021/05/29 09:49:54;;;;;;;7.57;3.97;;;20.20;62.70;;;;;;4983900;28;20468;-78
2021/05/29 09:52:25;;;;;;;3.70;3.00;;;20.20;59.90;;;;;;4999585;28;20476;-78
2021/05/29 09:54:57;;;;;;;5.37;4.60;;;20.30;57.30;;;;;;5007158;28;20473;-78
2021/05/29 09:57:25;;;;;;;7.10;5.77;;;20.30;61.10;;;;;;4995226;28;20882;-78
2021/05/29 09:59:57;;;;;;;3.53;3.23;;;20.30;59.20;;;;;;4984297;28;20501;-78
2021/05/29 10:02:28;;;;;;;3.03;2.77;;;20.40;57.60;;;;;;4984986;28;20472;-78
2021/05/29 10:04:58;;;;;;;4.13;3.10;;;20.50;57.00;;;;;;4999951;28;20460;-78
2021/05/29 10:07:40;;;;;;;4.63;3.30;;;20.50;58.00;;;;;;4993656;28;20470;-78
2021/05/29 10:10:08;;;;;;;4.13;3.70;;;20.60;64.60;;;;;;4964523;28;20481;-78
2021/05/29 10:12:35;;;;;;;3.90;3.50;;;20.70;61.30;;;;;;4957024;28;20442;-78
2021/05/29 10:15:03;;;;;;;3.90;3.53;;;20.60;62.30;;;;;;4996800;28;20469;-78
2021/05/29 10:17:31;;;;;;;5.10;3.20;;;20.50;60.80;;;;;;4984793;28;20543;-78
2021/05/29 10:19:58;;;;;;;7.40;3.30;;;20.50;58.70;;;;;;5001760;28;20833;-78
2021/05/29 10:22:25;;;;;;;4.47;3.77;;;20.50;64.30;;;;;;4982270;28;20860;-78
2021/05/29 10:24:54;;;;;;;5.30;3.40;;;20.70;61.30;;;;;;4968944;28;20482;-78
2021/05/29 10:27:26;;;;;;;4.73;3.57;;;20.80;59.60;;;;;;5000124;28;20487;-78
2021/05/29 10:29:59;;;;;;;3.50;3.20;;;20.90;58.60;;;;;;4989209;28;20469;-78
2021/05/29 10:32:27;;;;;;;4.50;3.13;;;21.10;60.10;;;;;;4981239;28;21006;-78
2021/05/29 10:35:13;;;;;;;3.73;2.43;;;21.20;58.70;;;;;;4993570;28;20478;-78
2021/05/29 10:37:58;;;;;;;5.20;3.50;;;21.30;58.00;;;;;;4958720;28;20467;-78
2021/05/29 10:40:34;;;;;;;4.20;3.80;;;21.40;61.90;;;;;;4992273;28;20471;-78
2021/05/29 10:43:10;;;;;;;4.40;3.50;;;21.40;56.40;;;;;;5001554;28;20440;-78
2021/05/29 10:45:40;;;;;;;5.00;3.97;;;21.50;58.80;;;;;;5000106;28;20513;-79
2021/05/29 10:48:15;;;;;;;3.90;3.60;;;21.80;60.80;;;;;;5000844;28;20982;-78
2021/05/29 10:53:38;;;;;;;4.37;3.77;;;21.90;61.40;;;;;;4979341;28;20442;-78
2021/05/29 10:56:20;;;;;;;5.20;4.80;;;21.70;61.40;;;;;;4990749;28;20573;-78
2021/05/29 10:59:22;;;;;;;4.30;3.90;;;21.60;62.90;;;;;;4968538;28;20468;-78
2021/05/29 11:01:53;;;;;;;5.20;4.27;;;21.50;61.20;;;;;;4976067;28;20443;-78
2021/05/29 11:04:22;;;;;;;4.50;3.20;;;21.60;62.40;;;;;;4985015;28;20469;-78
2021/05/29 11:07:19;;;;;;;4.83;3.87;;;21.70;61.20;;;;;;4973178;28;20520;-78
2021/05/29 11:09:56;;;;;;;37.53;33.43;;;21.80;60.50;;;;;;4982878;28;20469;-78
2021/05/29 11:12:51;;;;;;;8.63;5.80;;;21.90;57.20;;;;;;4970282;28;20448;-78
2021/05/29 11:15:20;;;;;;;4.43;3.80;;;22.00;59.60;;;;;;4995142;28;21219;-78
2021/05/29 11:18:08;;;;;;;5.93;3.60;;;21.80;58.90;;;;;;4991990;28;20475;-77
2021/05/29 11:21:05;;;;;;;4.40;3.93;;;21.40;57.20;;;;;;4987808;28;20481;-78
2021/05/29 11:23:33;;;;;;;3.60;3.00;;;21.00;60.50;;;;;;4976550;28;20472;-77
2021/05/29 11:26:06;;;;;;;3.00;2.70;;;20.70;59.90;;;;;;5000649;28;20440;-77
2021/05/29 11:28:34;;;;;;;4.97;3.37;;;20.70;60.70;;;;;;4981664;28;20457;-77
2021/05/29 11:31:02;;;;;;;3.30;3.00;;;20.70;64.50;;;;;;4986464;28;20469;-78
2021/05/29 11:33:29;;;;;;;3.60;3.03;;;20.90;64.80;;;;;;4981389;28;20872;-78
2021/05/29 11:35:57;;;;;;;3.53;3.20;;;21.10;61.80;;;;;;4991943;28;20494;-78
2021/05/29 11:41:16;;;;;;;4.67;3.10;;;21.20;61.80;;;;;;5002866;28;20472;-78
2021/05/29 11:43:49;;;;;;;4.97;3.20;;;21.10;61.30;;;;;;4996349;28;20899;-78
2021/05/29 11:46:18;;;;;;;3.63;3.33;;;20.90;62.60;;;;;;4974335;28;20439;-78
2021/05/29 11:48:47;;;;;;;5.03;3.70;;;20.90;61.30;;;;;;4995856;28;20453;-77
2021/05/29 11:51:18;;;;;;;5.47;4.10;;;21.00;64.70;;;;;;4992449;28;20561;-78
2021/05/29 11:53:49;;;;;;;4.60;4.00;;;21.00;63.10;;;;;;5003276;28;20433;-77
2021/05/29 11:56:19;;;;;;;4.70;4.13;;;21.00;62.30;;;;;;4999270;28;20440;-77
2021/05/29 11:58:52;;;;;;;7.63;4.63;;;21.10;64.00;;;;;;4954958;28;21915;-77
2021/05/29 12:01:22;;;;;;;5.33;4.50;;;21.10;62.80;;;;;;5012635;28;20971;-77
2021/05/29 12:03:52;;;;;;;5.33;4.40;;;21.10;64.90;;;;;;5012814;28;20460;-77
2021/05/29 12:06:36;;;;;;;5.30;3.83;;;21.20;63.80;;;;;;5006206;28;20441;-78
2021/05/29 12:09:09;;;;;;;5.00;4.60;;;21.20;60.40;;;;;;5011070;28;20457;-78
2021/05/29 12:11:38;;;;;;;4.93;4.53;;;21.40;62.30;;;;;;4985417;28;20472;-78
2021/05/29 12:14:14;;;;;;;5.53;5.10;;;21.50;59.90;;;;;;4997544;28;20453;-78
2021/05/29 12:17:04;;;;;;;5.20;4.50;;;21.70;59.70;;;;;;4993122;28;20438;-78
2021/05/29 12:19:37;;;;;;;5.20;3.80;;;21.80;61.30;;;;;;4982731;28;20461;-77
2021/05/29 12:22:11;;;;;;;5.43;4.47;;;22.20;55.40;;;;;;5010915;28;20527;-77
2021/05/29 12:24:43;;;;;;;6.33;4.20;;;22.30;57.00;;;;;;4963619;28;20461;-77
2021/05/29 12:27:18;;;;;;;5.67;5.00;;;22.20;58.80;;;;;;4989643;28;21014;-77
2021/05/29 12:29:46;;;;;;;5.90;5.27;;;22.20;62.90;;;;;;4983484;28;20461;-77
2021/05/29 12:32:32;;;;;;;6.77;4.70;;;22.10;60.40;;;;;;5013243;28;21006;-78
2021/05/29 12:35:40;;;;;;;6.30;5.00;;;22.20;57.20;;;;;;5002067;28;20532;-78
2021/05/29 12:38:21;;;;;;;9.67;5.23;;;22.20;56.50;;;;;;4988426;28;20462;-77
2021/05/29 12:41:14;;;;;;;9.67;7.03;;;22.00;55.60;;;;;;5004217;28;20658;-77
2021/05/29 12:43:43;;;;;;;7.40;4.43;;;22.10;55.10;;;;;;4984399;28;20533;-77
2021/05/29 12:46:26;;;;;;;4.37;3.97;;;22.10;53.70;;;;;;4989905;28;20450;-77
2021/05/29 12:49:26;;;;;;;4.33;3.93;;;22.10;55.40;;;;;;5007625;28;20994;-77
2021/05/29 12:51:56;;;;;;;5.17;4.17;;;22.10;55.20;;;;;;5005529;28;20477;-77
2021/05/29 12:54:23;;;;;;;6.03;4.90;;;22.20;58.90;;;;;;4980973;28;20486;-78
2021/05/29 12:56:53;;;;;;;5.60;5.10;;;22.30;56.40;;;;;;4960911;28;20499;-77
2021/05/29 12:59:28;;;;;;;5.70;5.10;;;22.30;55.60;;;;;;5005916;28;20479;-77
2021/05/29 13:07:29;;;;;;;6.13;4.20;;;22.30;57.60;;;;;;4992770;28;20459;-78
2021/05/29 13:10:07;;;;;;;8.13;4.00;;;22.30;55.20;;;;;;4982204;28;20465;-77
2021/05/29 13:12:36;;;;;;;4.77;4.37;;;22.20;55.40;;;;;;5000746;28;20443;-77
2021/05/29 13:15:17;;;;;;;5.57;5.17;;;22.20;53.90;;;;;;4983872;28;20460;-77
2021/05/29 13:17:45;;;;;;;6.50;5.93;;;22.30;52.70;;;;;;4986795;28;20549;-78
2021/05/29 13:20:19;;;;;;;5.63;4.57;;;22.30;52.30;;;;;;4997969;28;20459;-77
2021/05/29 13:22:58;;;;;;;5.80;4.33;;;22.20;50.90;;;;;;4983391;28;20453;-78
2021/05/29 13:25:35;;;;;;;5.77;5.00;;;22.10;51.40;;;;;;4995834;28;20471;-78